createdAt,value
2023-01-06T00:01:53.835Z,49.33
2023-01-06T00:04:22.195Z,61.10
2023-01-06T00:06:51.941Z,61.00
2023-01-06T00:09:20.532Z,52.30
2023-01-06T00:11:48.872Z,52.97
2023-01-06T00:14:17.223Z,52.78
2023-01-06T00:16:45.475Z,51.25
2023-01-06T00:19:13.835Z,50.35
2023-01-06T00:21:42.961Z,43.85
2023-01-06T00:24:13.035Z,42.72
2023-01-06T00:26:41.346Z,45.58
2023-01-06T00:29:11.635Z,46.22
2023-01-06T00:31:39.968Z,46.13
2023-01-06T00:34:12.100Z,46.45
2023-01-06T00:36:42.286Z,45.58
2023-01-06T00:39:14.880Z,45.35
2023-01-06T00:42:00.643Z,50.45
2023-01-06T00:44:28.999Z,50.80
2023-01-06T00:46:57.467Z,46.80
2023-01-06T00:49:25.728Z,56.72
2023-01-06T00:51:54.462Z,57.33
2023-01-06T00:54:24.277Z,47.30
2023-01-06T00:56:54.928Z,52.55
2023-01-06T00:59:24.862Z,52.65
2023-01-06T01:01:56.031Z,54.38
2023-01-06T01:04:25.884Z,59.80
2023-01-06T01:06:55.446Z,56.42
2023-01-06T01:09:27.386Z,55.67
2023-01-06T01:12:14.259Z,60.33
2023-01-06T01:14:46.445Z,57.22
2023-01-06T01:17:16.543Z,53.60
2023-01-06T01:19:44.951Z,51.17
2023-01-06T01:22:13.218Z,50.95
2023-01-06T01:24:43.068Z,59.60
2023-01-06T01:27:13.758Z,55.60
2023-01-06T01:29:42.083Z,54.58
2023-01-06T01:32:10.641Z,50.65
2023-01-06T01:34:38.981Z,51.45
2023-01-06T01:37:07.309Z,54.60
2023-01-06T01:39:35.590Z,51.95
2023-01-06T01:42:11.271Z,45.88
2023-01-06T01:45:02.728Z,54.88
2023-01-06T01:47:40.433Z,51.92
2023-01-06T01:50:21.996Z,49.38
2023-01-06T01:52:52.847Z,54.17
2023-01-06T01:55:22.492Z,50.30
2023-01-06T01:57:55.892Z,45.78
2023-01-06T02:00:24.284Z,47.28
2023-01-06T02:02:52.749Z,43.45
2023-01-06T02:05:24.861Z,43.10
2023-01-06T02:07:54.438Z,42.03
2023-01-06T02:10:25.499Z,42.03
2023-01-06T02:12:58.437Z,37.78
2023-01-06T02:15:29.331Z,32.75
2023-01-06T02:18:27.067Z,36.55
2023-01-06T02:21:20.715Z,35.65
2023-01-06T02:24:22.668Z,36.22
2023-01-06T02:27:31.121Z,31.52
2023-01-06T02:30:36.770Z,35.95
2023-01-06T02:33:19.920Z,30.25
2023-01-06T02:35:59.802Z,32.92
2023-01-06T02:38:41.547Z,37.17
2023-01-06T02:41:29.208Z,29.40
2023-01-06T02:44:04.364Z,33.35
2023-01-06T02:46:55.450Z,33.95
2023-01-06T02:49:33.314Z,27.25
2023-01-06T02:52:09.365Z,29.77
2023-01-06T02:54:51.076Z,30.60
2023-01-06T02:57:24.872Z,23.35
2023-01-06T03:00:01.351Z,21.33
2023-01-06T03:02:33.413Z,24.58
2023-01-06T03:05:06.607Z,29.83
2023-01-06T03:07:36.004Z,27.45
2023-01-06T03:10:06.323Z,21.38
2023-01-06T03:12:42.948Z,22.45
2023-01-06T03:15:12.678Z,19.85
2023-01-06T03:17:41.119Z,25.30
2023-01-06T03:20:12.661Z,22.67
2023-01-06T03:22:42.076Z,23.42
2023-01-06T03:25:11.626Z,18.98
2023-01-06T03:27:40.345Z,23.05
2023-01-06T03:30:12.025Z,21.88
2023-01-06T03:32:49.039Z,21.80
2023-01-06T03:35:31.934Z,20.38
2023-01-06T03:38:06.375Z,22.02
2023-01-06T03:40:40.505Z,20.67
2023-01-06T03:43:25.654Z,16.42
2023-01-06T03:46:09.296Z,17.23
2023-01-06T03:48:53.557Z,19.25
2023-01-06T03:51:38.086Z,18.83
2023-01-06T03:54:15.092Z,19.25
2023-01-06T03:56:48.614Z,18.98
2023-01-06T03:59:21.868Z,16.10
2023-01-06T04:01:52.095Z,19.23
2023-01-06T04:04:22.417Z,20.30
2023-01-06T04:06:52.299Z,17.38
2023-01-06T04:09:21.286Z,16.10
2023-01-06T04:12:07.210Z,17.48
2023-01-06T04:14:38.733Z,16.05
2023-01-06T04:17:07.663Z,19.25
2023-01-06T04:19:36.329Z,13.68
2023-01-06T04:22:06.159Z,17.40
2023-01-06T04:24:35.179Z,18.88
2023-01-06T04:27:03.590Z,14.98
2023-01-06T04:29:32.324Z,15.00
2023-01-06T04:32:00.621Z,15.25
2023-01-06T04:34:29.024Z,20.48
2023-01-06T04:36:57.441Z,15.00
2023-01-06T04:39:27.166Z,15.40
2023-01-06T04:41:55.455Z,15.68
2023-01-06T04:44:23.691Z,20.90
2023-01-06T04:46:52.090Z,15.90
2023-01-06T04:49:20.355Z,15.98
2023-01-06T04:51:48.682Z,17.80
2023-01-06T04:54:17.029Z,17.55
2023-01-06T04:56:46.737Z,17.63
2023-01-06T04:59:15.056Z,20.75
2023-01-06T05:01:43.345Z,22.45
2023-01-06T05:04:11.883Z,21.33
2023-01-06T05:06:40.731Z,21.27
2023-01-06T05:09:09.197Z,23.20
2023-01-06T05:11:37.490Z,24.88
2023-01-06T05:14:07.167Z,21.58
2023-01-06T05:16:36.162Z,23.73
2023-01-06T05:19:04.635Z,18.70
2023-01-06T05:21:33.180Z,21.73
2023-01-06T05:24:02.025Z,19.98
2023-01-06T05:26:30.610Z,21.38
2023-01-06T05:28:58.910Z,22.05
2023-01-06T05:31:28.686Z,23.98
2023-01-06T05:33:56.950Z,25.05
2023-01-06T05:36:25.234Z,21.00
2023-01-06T05:38:54.544Z,19.08
2023-01-06T05:41:23.177Z,20.23
2023-01-06T05:43:51.486Z,19.58
2023-01-06T05:46:19.894Z,20.35
2023-01-06T05:48:49.536Z,17.88
2023-01-06T05:51:18.259Z,19.77
2023-01-06T05:53:48.216Z,17.50
2023-01-06T05:56:18.662Z,19.25
2023-01-06T05:58:48.863Z,16.10
2023-01-06T06:01:19.906Z,16.33
2023-01-06T06:03:49.890Z,17.42
2023-01-06T06:06:19.075Z,15.98
2023-01-06T06:08:47.485Z,16.10
2023-01-06T06:11:18.278Z,15.70
2023-01-06T06:13:47.696Z,14.40
2023-01-06T06:16:17.654Z,14.10
2023-01-06T06:18:49.281Z,13.13
2023-01-06T06:21:20.909Z,12.80
2023-01-06T06:23:49.665Z,12.50
2023-01-06T06:26:17.960Z,12.95
2023-01-06T06:28:46.316Z,11.20
2023-01-06T06:31:17.887Z,15.40
2023-01-06T06:33:46.313Z,13.32
2023-01-06T06:36:16.169Z,10.05
2023-01-06T06:38:47.560Z,12.77
2023-01-06T06:41:16.374Z,14.00
2023-01-06T06:43:44.960Z,13.18
2023-01-06T06:46:13.539Z,14.73
2023-01-06T06:48:41.795Z,11.32
2023-01-06T06:51:11.775Z,15.20
2023-01-06T06:53:40.984Z,13.48
2023-01-06T06:56:11.665Z,15.13
2023-01-06T06:58:40.593Z,14.80
2023-01-06T07:01:10.873Z,20.83
2023-01-06T07:03:39.310Z,15.93
2023-01-06T07:06:09.375Z,16.27
2023-01-06T07:08:38.597Z,17.23
2023-01-06T07:11:06.968Z,14.63
2023-01-06T07:13:36.629Z,15.23
2023-01-06T07:16:08.963Z,15.95
2023-01-06T07:18:37.642Z,12.35
2023-01-06T07:21:09.070Z,15.93
2023-01-06T07:23:37.506Z,13.93
2023-01-06T07:26:06.185Z,13.77
2023-01-06T07:28:34.621Z,15.60
2023-01-06T07:31:04.441Z,14.35
2023-01-06T07:33:32.795Z,13.35
2023-01-06T07:36:01.061Z,14.52
2023-01-06T07:38:29.329Z,15.20
2023-01-06T07:41:01.412Z,15.55
2023-01-06T07:43:29.856Z,17.63
2023-01-06T07:45:58.200Z,12.25
2023-01-06T07:48:27.799Z,14.75
2023-01-06T07:50:56.082Z,14.75
2023-01-06T07:53:24.426Z,11.70
2023-01-06T07:55:53.657Z,12.75
2023-01-06T07:58:24.057Z,15.38
2023-01-06T08:00:52.587Z,14.55
2023-01-06T08:03:20.973Z,10.10
2023-01-06T08:05:50.882Z,13.63
2023-01-06T08:08:19.174Z,10.40
2023-01-06T08:10:47.461Z,10.77
2023-01-06T08:13:15.922Z,0.45
2023-01-06T08:15:44.292Z,0.45
2023-01-06T08:18:12.588Z,1.23
2023-01-06T08:20:40.807Z,0.75
2023-01-06T08:23:10.525Z,0.70
2023-01-06T08:25:38.764Z,0.05
2023-01-06T08:28:07.075Z,0.80
2023-01-06T08:30:40.038Z,1.08
2023-01-06T08:33:08.407Z,1.85
2023-01-06T08:35:36.821Z,0.10
2023-01-06T08:38:05.083Z,0.38
2023-01-06T08:40:34.846Z,0.10
2023-01-06T08:43:03.117Z,0.75
2023-01-06T08:45:31.431Z,0.30
2023-01-06T08:47:59.775Z,0.22
2023-01-06T08:50:28.079Z,0.52
2023-01-06T08:52:56.364Z,0.28
2023-01-06T08:55:24.641Z,0.25
2023-01-06T08:57:55.146Z,0.10
2023-01-06T09:00:23.900Z,0.25
2023-01-06T09:02:52.279Z,0.90
2023-01-06T09:05:20.672Z,0.00
2023-01-06T09:07:50.721Z,0.00
2023-01-06T09:10:19.983Z,0.32
2023-01-06T09:12:48.589Z,1.55
2023-01-06T09:15:18.379Z,0.35
2023-01-06T09:17:46.694Z,0.00
2023-01-06T09:20:14.954Z,0.98
2023-01-06T09:22:43.228Z,0.05
2023-01-06T09:25:11.465Z,0.00
2023-01-06T09:27:39.784Z,0.20
2023-01-06T09:30:09.388Z,0.08
2023-01-06T09:32:39.023Z,0.00
2023-01-06T09:35:08.607Z,0.28
2023-01-06T09:37:36.917Z,0.22
2023-01-06T09:40:06.291Z,0.05
2023-01-06T09:42:49.414Z,0.00
2023-01-06T09:45:20.510Z,0.00
2023-01-06T09:47:55.594Z,0.40
2023-01-06T09:50:33.459Z,0.00
2023-01-06T09:53:04.663Z,0.00
2023-01-06T09:55:36.475Z,0.90
2023-01-06T09:58:09.392Z,0.40
2023-01-06T10:00:41.255Z,0.00
2023-01-06T10:03:15.336Z,0.05
2023-01-06T10:05:57.378Z,0.10
2023-01-06T10:08:34.929Z,0.00
2023-01-06T10:11:13.719Z,0.10
2023-01-06T10:13:58.616Z,0.00
2023-01-06T10:16:37.775Z,0.00
2023-01-06T10:19:20.469Z,0.00
2023-01-06T10:21:58.885Z,0.03
2023-01-06T10:24:38.376Z,3.90
2023-01-06T10:27:19.210Z,0.30
2023-01-06T10:29:50.031Z,0.10
2023-01-06T10:32:18.945Z,10.07
2023-01-06T10:34:50.714Z,6.68
2023-01-06T10:37:24.138Z,10.27
2023-01-06T10:40:15.372Z,10.98
2023-01-06T10:42:57.824Z,6.65
2023-01-06T10:45:29.382Z,11.40
2023-01-06T10:47:58.597Z,8.05
2023-01-06T10:50:29.052Z,11.50
2023-01-06T10:52:57.697Z,12.75
2023-01-06T10:55:45.254Z,10.77
2023-01-06T10:58:21.604Z,11.25
2023-01-06T11:00:58.109Z,13.77
2023-01-06T11:03:35.078Z,10.75
2023-01-06T11:06:09.376Z,8.65
2023-01-06T11:08:38.923Z,10.50
2023-01-06T11:11:28.565Z,13.27
2023-01-06T11:14:00.183Z,10.43
2023-01-06T11:16:31.499Z,12.07
2023-01-06T11:19:03.909Z,12.00
2023-01-06T11:21:42.312Z,11.65
2023-01-06T11:24:18.882Z,9.85
2023-01-06T11:26:52.228Z,7.40
2023-01-06T11:29:28.814Z,11.20
2023-01-06T11:31:58.763Z,10.15
2023-01-06T11:34:30.134Z,10.18
2023-01-06T11:37:01.444Z,8.80
2023-01-06T11:39:34.396Z,11.02
2023-01-06T11:42:12.944Z,11.38
2023-01-06T11:44:43.787Z,12.57
2023-01-06T11:47:16.550Z,11.88
2023-01-06T11:49:49.679Z,12.25
2023-01-06T11:52:25.137Z,12.75
2023-01-06T11:55:02.746Z,15.55
2023-01-06T11:57:39.531Z,10.63
2023-01-06T12:00:26.349Z,15.27
2023-01-06T12:03:04.768Z,13.63
2023-01-06T12:05:39.996Z,8.60
2023-01-06T12:08:15.842Z,15.23
2023-01-06T12:10:46.486Z,13.00
2023-01-06T12:13:15.534Z,14.13
2023-01-06T12:15:47.240Z,15.50
2023-01-06T12:18:19.701Z,17.30
2023-01-06T12:20:50.846Z,11.45
2023-01-06T12:23:25.308Z,13.35
2023-01-06T12:25:57.459Z,7.65
2023-01-06T12:28:28.386Z,20.52
2023-01-06T12:31:02.475Z,18.77
2023-01-06T12:33:37.274Z,14.23
2023-01-06T12:36:12.398Z,11.80
2023-01-06T12:38:49.938Z,15.80
2023-01-06T12:41:25.816Z,11.88
2023-01-06T12:44:01.701Z,11.98
2023-01-06T12:46:36.697Z,13.20
2023-01-06T12:49:09.856Z,12.35
2023-01-06T12:51:43.179Z,12.05
2023-01-06T12:54:16.527Z,14.93
2023-01-06T12:57:00.445Z,14.13
2023-01-06T12:59:36.467Z,23.98
2023-01-06T13:02:17.699Z,16.23
2023-01-06T13:05:06.383Z,15.27
2023-01-06T13:07:43.812Z,7.05
2023-01-06T13:10:23.960Z,16.38
2023-01-06T13:13:16.561Z,14.75
2023-01-06T13:15:46.802Z,12.57
2023-01-06T13:18:21.602Z,13.00
2023-01-06T13:20:53.414Z,12.38
2023-01-06T13:23:32.737Z,13.90
2023-01-06T13:26:18.769Z,12.32
2023-01-06T13:28:53.991Z,12.45
2023-01-06T13:31:40.950Z,15.55
2023-01-06T13:34:35.098Z,11.13
2023-01-06T13:37:37.876Z,11.85
2023-01-06T13:40:12.928Z,13.20
2023-01-06T13:42:51.504Z,14.23
2023-01-06T13:45:23.063Z,11.98
2023-01-06T13:47:52.375Z,12.40
2023-01-06T13:50:22.977Z,14.93
2023-01-06T13:52:52.669Z,13.07
2023-01-06T13:55:30.249Z,15.10
2023-01-06T13:58:38.225Z,14.40
2023-01-06T14:01:08.785Z,11.73
2023-01-06T14:03:38.130Z,14.32
2023-01-06T14:06:11.167Z,11.70
2023-01-06T14:08:48.540Z,15.88
2023-01-06T14:11:28.086Z,11.90
2023-01-06T14:13:59.577Z,14.20
2023-01-06T14:16:42.207Z,12.93
2023-01-06T14:19:17.741Z,15.00
2023-01-06T14:21:48.411Z,15.70
2023-01-06T14:24:24.173Z,12.52
2023-01-06T14:26:58.385Z,12.75
2023-01-06T14:29:48.829Z,11.00
2023-01-06T14:32:53.903Z,17.35
2023-01-06T14:35:29.221Z,12.18
2023-01-06T14:38:01.022Z,10.85
2023-01-06T14:40:32.454Z,17.63
2023-01-06T14:43:04.054Z,10.55
2023-01-06T14:45:39.994Z,14.23
2023-01-06T14:48:14.559Z,13.63
2023-01-06T14:50:47.334Z,12.55
2023-01-06T14:53:23.350Z,15.68
2023-01-06T14:55:52.788Z,10.40
2023-01-06T14:58:32.025Z,14.90
2023-01-06T15:01:03.157Z,12.75
2023-01-06T15:03:32.626Z,18.67
2023-01-06T15:06:12.514Z,13.90
2023-01-06T15:08:40.846Z,11.45
2023-01-06T15:11:25.172Z,16.42
2023-01-06T15:13:53.642Z,16.63
2023-01-06T15:16:32.980Z,15.93
2023-01-06T15:19:02.047Z,12.32
2023-01-06T15:21:30.542Z,16.35
2023-01-06T15:23:59.191Z,15.70
2023-01-06T15:26:29.370Z,9.00
2023-01-06T15:29:03.038Z,15.55
2023-01-06T15:31:35.233Z,16.17
2023-01-06T15:34:08.628Z,12.55
2023-01-06T15:36:40.853Z,11.90
2023-01-06T15:39:14.812Z,12.88
2023-01-06T15:41:44.332Z,16.52
2023-01-06T15:44:31.422Z,10.52
2023-01-06T15:47:17.255Z,14.45
2023-01-06T15:49:53.462Z,15.50
2023-01-06T15:52:26.783Z,10.98
2023-01-06T15:54:57.868Z,13.77
2023-01-06T15:57:27.663Z,11.23
2023-01-06T15:59:58.485Z,12.32
2023-01-06T16:02:31.980Z,14.82
2023-01-06T16:05:01.588Z,15.35
2023-01-06T16:07:39.400Z,15.75
2023-01-06T16:10:33.501Z,13.90
2023-01-06T16:13:26.977Z,11.88
2023-01-06T16:16:00.860Z,11.25
2023-01-06T16:18:33.917Z,16.27
2023-01-06T16:21:15.947Z,14.20
2023-01-06T16:23:49.890Z,16.52
2023-01-06T16:26:20.434Z,13.80
2023-01-06T16:28:51.275Z,13.98
2023-01-06T16:31:31.511Z,14.13
2023-01-06T16:34:25.494Z,13.10
2023-01-06T16:36:56.549Z,14.20
2023-01-06T16:39:24.949Z,17.55
2023-01-06T16:42:36.035Z,11.60
2023-01-06T16:45:09.580Z,11.80
2023-01-06T16:47:37.886Z,16.23
2023-01-06T16:50:16.931Z,16.48
2023-01-06T16:52:47.720Z,16.00
2023-01-06T16:55:17.653Z,18.27
2023-01-06T16:57:49.859Z,16.50
2023-01-06T17:00:21.062Z,13.38
2023-01-06T17:02:50.891Z,15.77
2023-01-06T17:05:29.362Z,13.77
2023-01-06T17:08:01.567Z,9.93
2023-01-06T17:10:30.698Z,16.90
2023-01-06T17:13:19.815Z,14.98
2023-01-06T17:15:51.670Z,13.98
2023-01-06T17:18:24.487Z,11.00
2023-01-06T17:20:59.440Z,13.82
2023-01-06T17:23:28.073Z,12.68
2023-01-06T17:26:01.837Z,14.45
2023-01-06T17:28:33.774Z,11.63
2023-01-06T17:31:02.548Z,14.52
2023-01-06T17:33:31.602Z,15.05
2023-01-06T17:36:03.000Z,17.10
2023-01-06T17:38:32.263Z,16.35
2023-01-06T17:41:00.861Z,18.15
2023-01-06T17:43:33.514Z,17.85
2023-01-06T17:46:03.424Z,14.10
2023-01-06T17:48:33.145Z,18.42
2023-01-06T17:51:02.831Z,11.07
2023-01-06T17:53:51.312Z,11.88
2023-01-06T17:56:22.422Z,17.35
2023-01-06T17:58:51.050Z,12.55
2023-01-06T18:01:24.970Z,15.63
2023-01-06T18:03:54.884Z,11.95
2023-01-06T18:06:27.372Z,14.50
2023-01-06T18:09:11.040Z,14.63
2023-01-06T18:11:41.267Z,18.50
2023-01-06T18:14:32.276Z,15.25
2023-01-06T18:17:09.351Z,14.32
2023-01-06T18:19:39.009Z,14.93
2023-01-06T18:22:16.992Z,13.45
2023-01-06T18:24:47.043Z,14.48
2023-01-06T18:27:20.632Z,13.48
2023-01-06T18:29:48.869Z,14.00
2023-01-06T18:32:29.259Z,17.67
2023-01-06T18:34:59.204Z,14.38
2023-01-06T18:37:31.121Z,14.75
2023-01-06T18:40:01.768Z,18.02
2023-01-06T18:42:32.128Z,18.58
2023-01-06T18:45:18.332Z,17.35
2023-01-06T18:47:52.026Z,20.05
2023-01-06T18:50:36.973Z,13.52
2023-01-06T18:53:19.586Z,12.73
2023-01-06T18:55:51.223Z,15.55
2023-01-06T18:58:42.478Z,15.45
2023-01-06T19:01:19.723Z,17.75
2023-01-06T19:04:05.292Z,16.48
2023-01-06T19:06:39.885Z,14.95
2023-01-06T19:09:22.595Z,17.35
2023-01-06T19:11:59.747Z,15.93
2023-01-06T19:14:30.903Z,17.60
2023-01-06T19:17:00.402Z,14.38
2023-01-06T19:19:35.200Z,14.88
2023-01-06T19:22:20.203Z,16.10
2023-01-06T19:24:53.401Z,13.13
2023-01-06T19:27:46.874Z,17.77
2023-01-06T19:30:39.826Z,15.55
2023-01-06T19:33:39.511Z,13.68
2023-01-06T19:36:43.731Z,14.88
2023-01-06T19:39:35.136Z,15.95
2023-01-06T19:42:17.702Z,17.35
2023-01-06T19:44:50.150Z,16.58
2023-01-06T19:47:20.712Z,15.88
2023-01-06T19:49:53.356Z,13.82
2023-01-06T19:52:37.381Z,12.57
2023-01-06T19:55:30.214Z,13.95
2023-01-06T19:58:03.172Z,13.70
2023-01-06T20:00:32.832Z,13.70
2023-01-06T20:03:03.451Z,15.05
2023-01-06T20:05:32.763Z,14.43
2023-01-06T20:08:00.981Z,12.23
2023-01-06T20:10:29.149Z,22.95
2023-01-06T20:12:57.306Z,17.48
2023-01-06T20:15:26.795Z,13.18
2023-01-06T20:17:54.948Z,16.17
2023-01-06T20:20:23.111Z,14.10
2023-01-06T20:22:51.209Z,13.10
2023-01-06T20:25:19.403Z,14.27
2023-01-06T20:27:47.534Z,14.18
2023-01-06T20:30:15.848Z,17.65
2023-01-06T20:32:45.425Z,29.15
2023-01-06T20:35:15.282Z,15.27
2023-01-06T20:37:43.501Z,17.02
2023-01-06T20:40:12.432Z,17.10
2023-01-06T20:42:40.549Z,39.42
2023-01-06T20:45:09.470Z,24.08
2023-01-06T20:47:37.716Z,25.05
2023-01-06T20:50:08.451Z,20.58
2023-01-06T20:52:36.623Z,17.02
2023-01-06T20:55:04.909Z,17.38
2023-01-06T20:57:33.104Z,17.63
2023-01-06T21:00:01.374Z,15.95
2023-01-06T21:02:29.786Z,20.83
2023-01-06T21:04:58.133Z,17.88
2023-01-06T21:07:27.760Z,14.30
2023-01-06T21:09:55.989Z,20.00
2023-01-06T21:12:24.074Z,28.48
2023-01-06T21:14:52.202Z,25.35
2023-01-06T21:17:20.327Z,27.17
2023-01-06T21:19:48.556Z,27.85
2023-01-06T21:22:16.834Z,22.45
2023-01-06T21:24:46.383Z,28.00
2023-01-06T21:27:14.495Z,27.90
2023-01-06T21:29:42.626Z,25.13
2023-01-06T21:32:10.806Z,18.25
2023-01-06T21:34:38.982Z,17.15
2023-01-06T21:37:07.645Z,22.42
2023-01-06T21:39:35.999Z,19.83
2023-01-06T21:42:23.313Z,15.30
2023-01-06T21:44:51.385Z,18.95
2023-01-06T21:47:21.868Z,21.25
2023-01-06T21:49:50.104Z,23.17
2023-01-06T21:52:18.819Z,21.02
2023-01-06T21:54:47.254Z,20.90
2023-01-06T21:57:16.753Z,17.73
2023-01-06T21:59:45.236Z,16.85
2023-01-06T22:02:15.903Z,20.77
2023-01-06T22:04:44.148Z,22.02
2023-01-06T22:07:12.747Z,17.98
2023-01-06T22:09:43.602Z,19.10
2023-01-06T22:12:15.041Z,21.60
2023-01-06T22:14:45.492Z,19.20
2023-01-06T22:17:23.047Z,18.25
2023-01-06T22:19:55.034Z,19.30
2023-01-06T22:22:24.121Z,18.98
2023-01-06T22:24:54.553Z,18.67
2023-01-06T22:27:23.593Z,19.10
2023-01-06T22:29:53.115Z,18.77
2023-01-06T22:32:21.802Z,22.02
2023-01-06T22:34:49.893Z,27.38
2023-01-06T22:37:18.013Z,23.92
2023-01-06T22:39:46.705Z,18.63
2023-01-06T22:42:14.932Z,17.73
2023-01-06T22:44:43.027Z,18.50
2023-01-06T22:47:12.527Z,20.25
2023-01-06T22:49:40.648Z,19.98
2023-01-06T22:52:08.770Z,20.00
2023-01-06T22:54:36.913Z,23.27
2023-01-06T22:57:05.342Z,21.95
2023-01-06T22:59:33.504Z,16.33
2023-01-06T23:02:01.913Z,19.67
2023-01-06T23:04:31.731Z,18.08
2023-01-06T23:07:02.280Z,20.13
2023-01-06T23:09:30.411Z,17.25
2023-01-06T23:11:58.717Z,20.17
2023-01-06T23:14:26.976Z,17.73
2023-01-06T23:16:55.297Z,19.83
2023-01-06T23:19:25.444Z,22.27
2023-01-06T23:21:55.123Z,19.52
2023-01-06T23:24:23.399Z,19.05
2023-01-06T23:26:51.598Z,20.65
2023-01-06T23:29:19.909Z,20.95
2023-01-06T23:31:48.298Z,20.75
2023-01-06T23:34:18.770Z,24.58
2023-01-06T23:36:47.168Z,28.55
2023-01-06T23:39:18.067Z,25.23
2023-01-06T23:41:46.426Z,25.08
2023-01-06T23:44:16.686Z,26.88
2023-01-06T23:46:45.707Z,26.15
2023-01-06T23:49:15.812Z,33.75
2023-01-06T23:51:45.243Z,31.08
2023-01-06T23:54:13.801Z,30.20
2023-01-06T23:56:43.408Z,30.73
2023-01-06T23:59:13.486Z,32.72
